Time;durP1;ratioP1;P1;durP2;ratioP2;P2;SDS_P1;SDS_P2;PMS_P1;PMS_P2;Temp;Humidity;BMP_temperature;BMP_pressure;BME280_temperature;BME280_humidity;BME280_pressure;Samples;Min_cycle;Max_cycle;Signal;HPM_P1;HPM_P2
2022/07/16 00:01:57;;;;;;;9.40;4.73;;;;;;;;;;5121369;28;20952;-74
2022/07/16 00:04:24;;;;;;;8.13;7.33;;;;;;;;;;5120288;28;20939;-74
2022/07/16 00:06:51;;;;;;;11.73;10.00;;;;;;;;;;5119405;28;20453;-74
2022/07/16 00:09:19;;;;;;;8.70;6.97;;;;;;;;;;5119554;27;20481;-74
2022/07/16 00:11:46;;;;;;;7.00;5.03;;;;;;;;;;5119935;28;20465;-73
2022/07/16 00:14:13;;;;;;;5.90;4.23;;;;;;;;;;5120094;28;20456;-73
2022/07/16 00:16:40;;;;;;;4.67;4.07;;;;;;;;;;5120125;28;20450;-73
2022/07/16 00:19:16;;;;;;;11.63;6.20;;;;;;;;;;5120959;28;20457;-73
2022/07/16 00:21:43;;;;;;;8.67;6.80;;;;;;;;;;5120092;28;20468;-73
2022/07/16 00:24:10;;;;;;;7.60;4.30;;;;;;;;;;5120011;28;20502;-73
2022/07/16 00:26:38;;;;;;;7.77;4.73;;;;;;;;;;5119343;28;20461;-73
2022/07/16 00:29:06;;;;;;;5.20;4.20;;;;;;;;;;5119884;28;20449;-73
2022/07/16 00:31:33;;;;;;;6.10;5.50;;;;;;;;;;5120674;28;20477;-73
2022/07/16 00:34:00;;;;;;;11.37;8.43;;;;;;;;;;5120331;28;20445;-73
2022/07/16 00:36:27;;;;;;;10.33;8.47;;;;;;;;;;5120235;28;20958;-73
2022/07/16 00:38:54;;;;;;;8.10;6.30;;;;;;;;;;5120699;27;20839;-73
2022/07/16 00:41:21;;;;;;;6.87;5.00;;;;;;;;;;5120288;28;20492;-73
2022/07/16 00:43:50;;;;;;;7.00;4.13;;;;;;;;;;5120221;28;20828;-73
2022/07/16 00:46:17;;;;;;;4.30;3.90;;;;;;;;;;5120201;28;20930;-73
2022/07/16 00:48:45;;;;;;;4.23;3.80;;;;;;;;;;5120086;28;20462;-73
2022/07/16 00:51:12;;;;;;;12.33;6.40;;;;;;;;;;5120142;28;20489;-73
2022/07/16 00:53:40;;;;;;;7.90;5.70;;;;;;;;;;5119287;28;20442;-73
2022/07/16 00:56:09;;;;;;;7.10;4.83;;;;;;;;;;5120546;28;20899;-73
2022/07/16 00:58:37;;;;;;;7.80;5.40;;;;;;;;;;5119873;28;20445;-73
2022/07/16 01:01:06;;;;;;;5.00;4.50;;;;;;;;;;5118702;28;20461;-73
2022/07/16 01:03:34;;;;;;;6.83;4.50;;;;;;;;;;5118672;28;20461;-73
2022/07/16 01:06:02;;;;;;;7.90;5.30;;;;;;;;;;5118404;28;20453;-73
2022/07/16 01:08:29;;;;;;;5.57;4.60;;;;;;;;;;5117995;28;20456;-73
2022/07/16 01:10:57;;;;;;;5.47;4.80;;;;;;;;;;5117538;28;20486;-73
2022/07/16 01:13:25;;;;;;;5.60;5.07;;;;;;;;;;5118347;28;20831;-73
2022/07/16 01:15:52;;;;;;;9.77;4.80;;;;;;;;;;5119306;28;20449;-73
2022/07/16 01:18:20;;;;;;;7.60;4.67;;;;;;;;;;5120156;28;20450;-73
2022/07/16 01:20:47;;;;;;;6.70;4.50;;;;;;;;;;5118940;28;20446;-73
2022/07/16 01:23:19;;;;;;;8.20;4.90;;;;;;;;;;5118826;28;20473;-73
2022/07/16 01:25:46;;;;;;;7.17;5.27;;;;;;;;;;5118506;28;20477;-73
2022/07/16 01:28:13;;;;;;;5.53;5.00;;;;;;;;;;5118406;28;20426;-73
2022/07/16 01:30:41;;;;;;;7.03;4.60;;;;;;;;;;5117978;27;20481;-73
2022/07/16 01:33:25;;;;;;;4.70;4.30;;;;;;;;;;5118165;28;20465;-73
2022/07/16 01:35:55;;;;;;;4.53;4.13;;;;;;;;;;5118719;28;20433;-73
2022/07/16 01:38:23;;;;;;;5.40;4.90;;;;;;;;;;5118401;28;20495;-73
2022/07/16 01:40:50;;;;;;;11.43;4.40;;;;;;;;;;5118114;28;20445;-74
2022/07/16 01:43:19;;;;;;;5.73;5.07;;;;;;;;;;5118722;28;20466;-73
2022/07/16 01:45:46;;;;;;;4.43;4.03;;;;;;;;;;5118868;28;20441;-73
2022/07/16 01:48:14;;;;;;;5.20;4.30;;;;;;;;;;5118167;28;20445;-73
2022/07/16 01:50:42;;;;;;;11.50;4.50;;;;;;;;;;5118379;28;20477;-73
2022/07/16 01:53:09;;;;;;;11.03;4.60;;;;;;;;;;5118389;28;20476;-73
2022/07/16 01:55:38;;;;;;;4.07;3.67;;;;;;;;;;5118389;28;20915;-73
2022/07/16 01:58:05;;;;;;;7.97;6.63;;;;;;;;;;5118639;28;20445;-73
2022/07/16 02:00:33;;;;;;;5.30;3.90;;;;;;;;;;5118831;28;20434;-73
2022/07/16 02:03:00;;;;;;;4.60;3.73;;;;;;;;;;5118642;28;20477;-73
2022/07/16 02:05:27;;;;;;;6.40;5.80;;;;;;;;;;5118627;28;20453;-73
2022/07/16 02:07:54;;;;;;;6.47;4.63;;;;;;;;;;5118597;28;20476;-73
2022/07/16 02:10:21;;;;;;;6.40;4.73;;;;;;;;;;5118682;28;20974;-73
2022/07/16 02:12:50;;;;;;;6.73;4.40;;;;;;;;;;5117756;28;20472;-73
2022/07/16 02:15:17;;;;;;;7.03;5.13;;;;;;;;;;5117115;28;20457;-73
2022/07/16 02:17:44;;;;;;;5.73;4.80;;;;;;;;;;5117619;28;20460;-73
2022/07/16 02:20:12;;;;;;;5.70;4.17;;;;;;;;;;5117252;28;20430;-74
2022/07/16 02:22:39;;;;;;;8.60;6.90;;;;;;;;;;5117424;28;20473;-74
2022/07/16 02:25:07;;;;;;;6.77;4.40;;;;;;;;;;5117737;28;20843;-74
2022/07/16 02:27:34;;;;;;;6.30;5.00;;;;;;;;;;5117556;28;20461;-74
2022/07/16 02:30:02;;;;;;;5.73;5.00;;;;;;;;;;5118317;28;20478;-74
2022/07/16 02:32:30;;;;;;;5.90;4.90;;;;;;;;;;5118002;28;20473;-74
2022/07/16 02:34:57;;;;;;;5.30;4.30;;;;;;;;;;5117866;28;20449;-74
2022/07/16 02:37:24;;;;;;;8.67;3.60;;;;;;;;;;5119086;28;20457;-74
2022/07/16 02:39:51;;;;;;;4.90;4.50;;;;;;;;;;5119694;28;20437;-74
2022/07/16 02:42:18;;;;;;;4.63;4.20;;;;;;;;;;5119304;28;20540;-74
2022/07/16 02:44:45;;;;;;;6.43;4.37;;;;;;;;;;5118576;28;20457;-74
2022/07/16 02:47:13;;;;;;;6.70;4.27;;;;;;;;;;5118701;28;20956;-74
2022/07/16 02:49:41;;;;;;;7.47;4.37;;;;;;;;;;5117906;28;20816;-74
2022/07/16 02:52:08;;;;;;;9.20;5.10;;;;;;;;;;5118384;28;20470;-74
2022/07/16 02:54:35;;;;;;;6.33;4.70;;;;;;;;;;5118274;28;20433;-73
2022/07/16 02:57:02;;;;;;;11.60;5.13;;;;;;;;;;5119968;28;20437;-73
2022/07/16 02:59:29;;;;;;;6.90;5.00;;;;;;;;;;5119517;28;20456;-73
2022/07/16 03:01:56;;;;;;;5.87;4.77;;;;;;;;;;5119560;28;20461;-73
2022/07/16 03:04:24;;;;;;;7.13;5.40;;;;;;;;;;5119528;28;20446;-73
2022/07/16 03:06:51;;;;;;;6.40;4.87;;;;;;;;;;5118242;28;20497;-73
2022/07/16 03:09:18;;;;;;;7.40;4.70;;;;;;;;;;5118067;28;20450;-73
2022/07/16 03:11:46;;;;;;;6.23;4.80;;;;;;;;;;5117813;28;20982;-73
2022/07/16 03:14:13;;;;;;;12.20;5.10;;;;;;;;;;5118096;28;20430;-73
2022/07/16 03:16:40;;;;;;;6.97;4.80;;;;;;;;;;5118124;28;20453;-73
2022/07/16 03:19:07;;;;;;;9.63;5.30;;;;;;;;;;5117839;28;20567;-73
2022/07/16 03:21:35;;;;;;;7.57;5.30;;;;;;;;;;5117809;28;20466;-73
2022/07/16 03:24:03;;;;;;;7.63;5.00;;;;;;;;;;5117585;28;20454;-73
2022/07/16 03:26:30;;;;;;;7.50;5.33;;;;;;;;;;5117018;28;20469;-74
2022/07/16 03:28:57;;;;;;;6.30;4.90;;;;;;;;;;5117688;28;20451;-74
2022/07/16 03:31:24;;;;;;;7.77;5.10;;;;;;;;;;5117821;28;21009;-74
2022/07/16 03:33:51;;;;;;;6.67;5.00;;;;;;;;;;5117790;28;20450;-74
2022/07/16 03:36:18;;;;;;;5.63;4.13;;;;;;;;;;5121487;28;20846;-74
2022/07/16 03:39:00;;;;;;;6.60;5.20;;;;;;;;;;5121311;28;20449;-74
2022/07/16 03:41:27;;;;;;;9.80;5.53;;;;;;;;;;5121484;28;20470;-74
2022/07/16 03:43:54;;;;;;;7.00;5.23;;;;;;;;;;5121288;28;20449;-74
2022/07/16 03:46:21;;;;;;;7.17;5.10;;;;;;;;;;5119715;28;20450;-74
2022/07/16 03:48:49;;;;;;;6.47;5.67;;;;;;;;;;5120435;28;20480;-74
2022/07/16 03:51:16;;;;;;;6.10;5.50;;;;;;;;;;5119791;28;20838;-74
2022/07/16 03:53:43;;;;;;;7.10;5.20;;;;;;;;;;5119193;28;20438;-74
2022/07/16 03:56:12;;;;;;;7.20;4.33;;;;;;;;;;5119381;27;20460;-74
2022/07/16 03:58:39;;;;;;;5.50;4.87;;;;;;;;;;5120182;28;20454;-74
2022/07/16 04:01:06;;;;;;;6.10;4.80;;;;;;;;;;5119672;28;20446;-74
2022/07/16 04:03:33;;;;;;;8.40;5.37;;;;;;;;;;5119797;28;20448;-74
2022/07/16 04:06:00;;;;;;;6.50;4.90;;;;;;;;;;5120309;28;20450;-74
2022/07/16 04:08:27;;;;;;;8.33;5.20;;;;;;;;;;5119968;28;20945;-74
2022/07/16 04:10:55;;;;;;;6.30;5.40;;;;;;;;;;5121433;28;20492;-74
2022/07/16 04:13:23;;;;;;;7.53;5.87;;;;;;;;;;5121350;28;20476;-74
2022/07/16 04:15:51;;;;;;;5.70;5.03;;;;;;;;;;5121921;28;20454;-74
2022/07/16 04:18:18;;;;;;;9.17;4.73;;;;;;;;;;5121373;28;20503;-74
2022/07/16 04:20:45;;;;;;;8.07;4.70;;;;;;;;;;5120547;28;20516;-74
2022/07/16 04:23:12;;;;;;;5.47;4.73;;;;;;;;;;5119895;27;20468;-74
2022/07/16 04:25:39;;;;;;;7.77;4.23;;;;;;;;;;5119353;28;20442;-74
2022/07/16 04:28:06;;;;;;;6.37;4.20;;;;;;;;;;5118508;28;20790;-74
2022/07/16 04:30:35;;;;;;;5.57;4.67;;;;;;;;;;5117660;28;20481;-74
2022/07/16 04:33:02;;;;;;;6.10;4.37;;;;;;;;;;5117652;28;20469;-74
2022/07/16 04:35:29;;;;;;;5.20;4.80;;;;;;;;;;5116868;28;20452;-74
2022/07/16 04:37:56;;;;;;;5.33;4.10;;;;;;;;;;5116982;28;20483;-74
2022/07/16 04:40:23;;;;;;;6.27;5.67;;;;;;;;;;5116672;28;20442;-74
2022/07/16 04:42:50;;;;;;;4.77;4.00;;;;;;;;;;5116204;28;20465;-74
2022/07/16 04:45:17;;;;;;;5.53;3.67;;;;;;;;;;5116185;28;20450;-74
2022/07/16 04:47:46;;;;;;;4.10;3.70;;;;;;;;;;5116580;28;20918;-74
2022/07/16 04:50:13;;;;;;;6.70;4.00;;;;;;;;;;5116394;28;20462;-74
2022/07/16 04:52:40;;;;;;;7.13;4.60;;;;;;;;;;5115973;28;20473;-74
2022/07/16 04:55:07;;;;;;;5.03;4.63;;;;;;;;;;5115696;28;20437;-74
2022/07/16 04:57:35;;;;;;;5.00;4.07;;;;;;;;;;5115830;28;20449;-74
2022/07/16 05:00:02;;;;;;;6.00;5.00;;;;;;;;;;5116139;28;20458;-74
2022/07/16 05:05:19;;;;;;;3.70;3.40;;;;;;;;;;5115920;28;20772;-74
2022/07/16 05:07:46;;;;;;;4.43;3.87;;;;;;;;;;5116234;28;20441;-74
2022/07/16 05:10:14;;;;;;;3.50;3.20;;;;;;;;;;5115934;28;20457;-74
2022/07/16 05:12:41;;;;;;;3.90;3.43;;;;;;;;;;5115653;28;20986;-74
2022/07/16 05:15:08;;;;;;;4.70;3.30;;;;;;;;;;5115627;28;20450;-74
2022/07/16 05:17:35;;;;;;;3.60;3.30;;;;;;;;;;5115878;28;20935;-74
2022/07/16 05:20:02;;;;;;;8.53;3.60;;;;;;;;;;5115900;28;20855;-74
2022/07/16 05:22:31;;;;;;;3.40;3.10;;;;;;;;;;5115634;28;20469;-74
2022/07/16 05:24:58;;;;;;;3.50;3.20;;;;;;;;;;5115675;28;20454;-75
2022/07/16 05:27:25;;;;;;;4.27;3.90;;;;;;;;;;5115201;28;20461;-75
2022/07/16 05:29:52;;;;;;;3.30;3.00;;;;;;;;;;5115416;28;20453;-75
2022/07/16 05:32:19;;;;;;;7.57;3.57;;;;;;;;;;5114947;28;20492;-75
2022/07/16 05:34:46;;;;;;;4.70;3.40;;;;;;;;;;5115327;28;20450;-75
2022/07/16 05:37:14;;;;;;;4.27;3.50;;;;;;;;;;5115091;27;20446;-75
2022/07/16 05:39:42;;;;;;;4.60;4.00;;;;;;;;;;5114822;28;20459;-75
2022/07/16 05:42:09;;;;;;;4.33;3.03;;;;;;;;;;5114908;28;20472;-75
2022/07/16 05:44:36;;;;;;;4.10;3.30;;;;;;;;;;5115054;28;20449;-75
2022/07/16 05:47:03;;;;;;;6.70;3.63;;;;;;;;;;5115163;28;20453;-75
2022/07/16 05:49:31;;;;;;;11.70;4.90;;;;;;;;;;5115690;28;20457;-75
2022/07/16 05:51:58;;;;;;;6.13;3.40;;;;;;;;;;5115389;28;20528;-75
2022/07/16 05:54:25;;;;;;;3.50;3.20;;;;;;;;;;5115662;28;20914;-75
2022/07/16 05:56:53;;;;;;;4.13;3.60;;;;;;;;;;5115070;28;20439;-75
2022/07/16 05:59:20;;;;;;;5.70;3.20;;;;;;;;;;5115075;28;20454;-75
2022/07/16 06:01:47;;;;;;;3.70;3.40;;;;;;;;;;5114478;28;20476;-75
2022/07/16 06:04:14;;;;;;;4.40;3.10;;;;;;;;;;5114978;28;20449;-75
2022/07/16 06:06:41;;;;;;;5.27;3.10;;;;;;;;;;5115320;28;20445;-76
2022/07/16 06:09:09;;;;;;;3.60;2.67;;;;;;;;;;5115070;28;20785;-76
2022/07/16 06:11:36;;;;;;;6.20;2.90;;;;;;;;;;5115028;27;20863;-76
2022/07/16 06:14:04;;;;;;;5.70;2.93;;;;;;;;;;5115632;28;20780;-76
2022/07/16 06:16:31;;;;;;;6.00;3.50;;;;;;;;;;5116106;28;20453;-76
2022/07/16 06:18:58;;;;;;;4.07;3.77;;;;;;;;;;5115668;28;20449;-75
2022/07/16 06:21:25;;;;;;;6.43;3.40;;;;;;;;;;5115030;28;20460;-75
2022/07/16 06:23:52;;;;;;;3.90;3.60;;;;;;;;;;5114663;28;20440;-75
2022/07/16 06:26:19;;;;;;;6.70;3.23;;;;;;;;;;5114508;27;20473;-75
2022/07/16 06:28:47;;;;;;;4.67;3.23;;;;;;;;;;5115544;28;20433;-75
2022/07/16 06:31:16;;;;;;;3.77;3.00;;;;;;;;;;5115009;28;20485;-75
2022/07/16 06:33:43;;;;;;;5.13;2.70;;;;;;;;;;5115466;28;20546;-76
2022/07/16 06:36:10;;;;;;;4.10;2.57;;;;;;;;;;5113493;28;20460;-75
2022/07/16 06:38:37;;;;;;;3.17;2.77;;;;;;;;;;5114652;28;20445;-75
2022/07/16 06:41:04;;;;;;;3.57;2.93;;;;;;;;;;5114428;28;20444;-75
2022/07/16 06:43:31;;;;;;;2.60;2.40;;;;;;;;;;5114197;28;20971;-75
2022/07/16 06:45:58;;;;;;;3.97;2.90;;;;;;;;;;5113582;28;20456;-75
2022/07/16 06:48:27;;;;;;;4.33;3.00;;;;;;;;;;5113486;28;20452;-75
2022/07/16 06:50:54;;;;;;;3.70;3.13;;;;;;;;;;5113678;28;20449;-75
2022/07/16 06:53:21;;;;;;;4.70;3.00;;;;;;;;;;5113904;28;20517;-75
2022/07/16 06:55:48;;;;;;;5.00;3.67;;;;;;;;;;5113616;28;20440;-75
2022/07/16 06:58:15;;;;;;;3.10;2.80;;;;;;;;;;5113822;28;20849;-75
2022/07/16 07:00:42;;;;;;;3.03;2.70;;;;;;;;;;5113397;28;20787;-75
2022/07/16 07:03:11;;;;;;;3.70;3.40;;;;;;;;;;5113825;28;20835;-75
2022/07/16 07:05:40;;;;;;;5.03;2.70;;;;;;;;;;5113014;28;20463;-75
2022/07/16 07:08:07;;;;;;;3.53;3.20;;;;;;;;;;5113707;28;20818;-75
2022/07/16 07:10:34;;;;;;;3.00;2.70;;;;;;;;;;5116267;28;20437;-75
2022/07/16 07:13:02;;;;;;;4.30;3.00;;;;;;;;;;5117419;28;20492;-75
2022/07/16 07:15:29;;;;;;;3.60;2.63;;;;;;;;;;5116980;28;20513;-75
2022/07/16 07:17:56;;;;;;;3.50;2.40;;;;;;;;;;5117131;28;20440;-75
2022/07/16 07:20:23;;;;;;;3.20;2.90;;;;;;;;;;5117561;28;20945;-75
2022/07/16 07:22:52;;;;;;;6.00;4.30;;;;;;;;;;5117050;28;20880;-75
2022/07/16 07:25:19;;;;;;;3.43;2.73;;;;;;;;;;5116747;28;20459;-75
2022/07/16 07:27:46;;;;;;;3.60;2.70;;;;;;;;;;5116592;27;20492;-75
2022/07/16 07:30:13;;;;;;;4.73;3.00;;;;;;;;;;5116918;28;20453;-75
2022/07/16 07:32:41;;;;;;;3.80;2.67;;;;;;;;;;5116881;28;20532;-75
2022/07/16 07:35:08;;;;;;;5.20;2.40;;;;;;;;;;5117740;28;20452;-75
2022/07/16 07:37:35;;;;;;;5.97;2.27;;;;;;;;;;5116804;28;20874;-75
2022/07/16 07:40:04;;;;;;;2.70;2.00;;;;;;;;;;5117391;28;20878;-77
2022/07/16 07:42:31;;;;;;;5.10;2.10;;;;;;;;;;5116855;28;20500;-75
2022/07/16 07:44:58;;;;;;;2.50;2.00;;;;;;;;;;5116691;28;20448;-75
2022/07/16 07:47:27;;;;;;;2.43;2.23;;;;;;;;;;5117182;28;20445;-77
2022/07/16 07:49:54;;;;;;;3.23;2.40;;;;;;;;;;5117035;27;20926;-75
2022/07/16 07:52:22;;;;;;;3.07;2.30;;;;;;;;;;5117188;28;20481;-75
2022/07/16 07:54:49;;;;;;;2.93;2.07;;;;;;;;;;5116800;28;20445;-75
2022/07/16 07:57:17;;;;;;;2.90;2.60;;;;;;;;;;5116913;28;20425;-75
2022/07/16 07:59:44;;;;;;;4.30;2.37;;;;;;;;;;5116622;28;20772;-75
2022/07/16 08:02:11;;;;;;;5.10;2.50;;;;;;;;;;5117059;27;20829;-75
2022/07/16 08:04:38;;;;;;;2.40;2.20;;;;;;;;;;5117034;28;20464;-75
2022/07/16 08:07:06;;;;;;;2.67;1.90;;;;;;;;;;5116964;28;20455;-75
2022/07/16 08:09:33;;;;;;;3.93;3.00;;;;;;;;;;5116717;28;20852;-75
2022/07/16 08:12:00;;;;;;;3.40;3.00;;;;;;;;;;5116333;28;21063;-75
2022/07/16 08:14:29;;;;;;;4.90;4.10;;;;;;;;;;5115883;28;20450;-75
2022/07/16 08:16:56;;;;;;;6.37;2.83;;;;;;;;;;5116501;28;20798;-75
2022/07/16 08:19:23;;;;;;;2.90;2.60;;;;;;;;;;5116265;28;20535;-75
2022/07/16 08:21:50;;;;;;;3.73;2.40;;;;;;;;;;5115754;28;20473;-75
2022/07/16 08:27:02;;;;;;;5.40;2.90;;;;;;;;;;5117246;28;20445;-75
2022/07/16 08:29:31;;;;;;;2.90;2.20;;;;;;;;;;5117253;28;20457;-75
2022/07/16 08:31:58;;;;;;;5.07;2.80;;;;;;;;;;5116908;27;20512;-75
2022/07/16 08:34:25;;;;;;;4.77;3.13;;;;;;;;;;5117369;28;20450;-75
2022/07/16 08:36:53;;;;;;;2.80;2.37;;;;;;;;;;5117099;28;20454;-75
2022/07/16 08:39:20;;;;;;;4.10;2.60;;;;;;;;;;5117445;27;20946;-75
2022/07/16 08:41:48;;;;;;;3.37;3.07;;;;;;;;;;5117451;28;20484;-75
2022/07/16 08:44:15;;;;;;;5.73;3.30;;;;;;;;;;5117511;28;20966;-75
2022/07/16 08:46:44;;;;;;;3.53;3.03;;;;;;;;;;5117757;28;20449;-75
2022/07/16 08:49:11;;;;;;;4.67;2.60;;;;;;;;;;5117798;28;20449;-75
2022/07/16 08:51:39;;;;;;;3.07;2.77;;;;;;;;;;5117335;28;20474;-75
2022/07/16 08:54:08;;;;;;;3.70;3.40;;;;;;;;;;5117306;28;20805;-75
2022/07/16 08:56:35;;;;;;;4.70;3.80;;;;;;;;;;5116990;28;20430;-76
2022/07/16 08:59:03;;;;;;;9.43;4.00;;;;;;;;;;5117323;28;20460;-75
2022/07/16 09:01:30;;;;;;;8.83;3.70;;;;;;;;;;5116490;28;20473;-75
2022/07/16 09:03:59;;;;;;;3.40;3.10;;;;;;;;;;5116726;28;20492;-76
2022/07/16 09:06:27;;;;;;;4.10;3.40;;;;;;;;;;5116851;28;20453;-75
2022/07/16 09:08:54;;;;;;;4.73;3.60;;;;;;;;;;5116902;28;20441;-76
2022/07/16 09:11:22;;;;;;;3.50;3.20;;;;;;;;;;5116206;28;20492;-75
2022/07/16 09:14:02;;;;;;;3.80;3.50;;;;;;;;;;5115723;27;20485;-75
2022/07/16 09:16:30;;;;;;;2.93;2.60;;;;;;;;;;5116094;28;20453;-75
2022/07/16 09:19:10;;;;;;;4.57;3.50;;;;;;;;;;5116017;28;20942;-75
2022/07/16 09:21:38;;;;;;;4.73;2.70;;;;;;;;;;5116080;27;20473;-75
2022/07/16 09:24:05;;;;;;;5.37;3.60;;;;;;;;;;5115445;28;20461;-75
2022/07/16 09:26:33;;;;;;;7.40;3.20;;;;;;;;;;5115707;28;20469;-75
2022/07/16 09:29:02;;;;;;;4.63;3.60;;;;;;;;;;5115454;28;20456;-75
2022/07/16 09:31:34;;;;;;;4.23;2.87;;;;;;;;;;5114743;28;20477;-75
2022/07/16 09:34:02;;;;;;;3.87;3.57;;;;;;;;;;5115149;28;20508;-75
2022/07/16 09:36:31;;;;;;;4.23;3.80;;;;;;;;;;5115622;28;20468;-75
2022/07/16 09:38:58;;;;;;;4.20;3.80;;;;;;;;;;5115297;27;20454;-75
2022/07/16 09:41:25;;;;;;;11.13;5.03;;;;;;;;;;5114815;28;20465;-75
2022/07/16 09:43:52;;;;;;;4.10;2.63;;;;;;;;;;5115343;28;20477;-75
2022/07/16 09:46:20;;;;;;;2.97;2.67;;;;;;;;;;5115440;28;20884;-75
2022/07/16 09:48:48;;;;;;;4.03;3.10;;;;;;;;;;5115074;28;20454;-75
2022/07/16 09:51:16;;;;;;;3.73;2.87;;;;;;;;;;5115154;28;20460;-76
2022/07/16 09:53:46;;;;;;;3.00;2.60;;;;;;;;;;5115599;28;20477;-76
2022/07/16 09:56:15;;;;;;;6.23;3.83;;;;;;;;;;5115401;28;20499;-75
2022/07/16 09:58:45;;;;;;;4.17;3.03;;;;;;;;;;5114985;28;20437;-75
2022/07/16 10:01:12;;;;;;;3.63;2.33;;;;;;;;;;5114603;28;20437;-74
2022/07/16 10:03:39;;;;;;;6.17;2.67;;;;;;;;;;5114972;28;20453;-74
2022/07/16 10:06:07;;;;;;;2.80;2.47;;;;;;;;;;5115296;28;20446;-76
2022/07/16 10:08:34;;;;;;;5.03;2.90;;;;;;;;;;5114770;28;20456;-74
2022/07/16 10:11:04;;;;;;;5.23;4.03;;;;;;;;;;5114610;28;20445;-74
2022/07/16 10:13:32;;;;;;;2.67;2.47;;;;;;;;;;5115359;28;20891;-74
2022/07/16 10:15:59;;;;;;;4.47;2.73;;;;;;;;;;5114448;28;20456;-75
2022/07/16 10:18:34;;;;;;;4.53;2.80;;;;;;;;;;5114885;28;20456;-75
2022/07/16 10:21:09;;;;;;;5.70;3.27;;;;;;;;;;5114982;28;20440;-75
2022/07/16 10:23:36;;;;;;;3.23;2.90;;;;;;;;;;5115416;28;20433;-75
2022/07/16 10:26:07;;;;;;;3.60;2.70;;;;;;;;;;5115071;28;20528;-75
2022/07/16 10:28:42;;;;;;;3.30;3.00;;;;;;;;;;5114869;28;20434;-75
2022/07/16 10:31:27;;;;;;;3.23;2.47;;;;;;;;;;5114860;28;20894;-75
2022/07/16 10:34:09;;;;;;;3.97;2.63;;;;;;;;;;5114975;28;20482;-75
2022/07/16 10:36:46;;;;;;;3.37;3.00;;;;;;;;;;5114284;28;20456;-75
2022/07/16 10:39:15;;;;;;;5.23;2.80;;;;;;;;;;5114986;28;20430;-75
2022/07/16 10:41:49;;;;;;;11.23;2.90;;;;;;;;;;5115101;28;20966;-75
2022/07/16 10:44:17;;;;;;;3.33;3.03;;;;;;;;;;5117593;28;20431;-75
2022/07/16 10:46:53;;;;;;;4.60;3.23;;;;;;;;;;5118782;28;20446;-75
2022/07/16 10:49:21;;;;;;;6.47;3.03;;;;;;;;;;5119078;28;20449;-75
2022/07/16 10:52:08;;;;;;;2.83;2.63;;;;;;;;;;5118516;27;20473;-75
2022/07/16 10:54:37;;;;;;;4.03;3.70;;;;;;;;;;5118754;28;20473;-75
2022/07/16 10:57:09;;;;;;;8.73;2.80;;;;;;;;;;5118704;28;20446;-76
2022/07/16 10:59:38;;;;;;;3.33;2.20;;;;;;;;;;5118951;28;20974;-74
2022/07/16 11:02:06;;;;;;;3.80;2.53;;;;;;;;;;5119067;28;20477;-75
2022/07/16 11:04:35;;;;;;;3.10;2.80;;;;;;;;;;5117654;28;20466;-75
2022/07/16 11:07:02;;;;;;;3.20;2.90;;;;;;;;;;5117517;27;20446;-75
2022/07/16 11:09:31;;;;;;;3.33;3.03;;;;;;;;;;5117678;28;20466;-74
2022/07/16 11:12:09;;;;;;;6.07;3.50;;;;;;;;;;5117440;28;20573;-75
2022/07/16 11:14:37;;;;;;;3.23;2.93;;;;;;;;;;5117021;28;20534;-75
2022/07/16 11:17:05;;;;;;;2.97;2.40;;;;;;;;;;5117800;28;20476;-75
2022/07/16 11:19:36;;;;;;;5.43;3.53;;;;;;;;;;5116813;27;20505;-75
2022/07/16 11:22:04;;;;;;;5.27;3.70;;;;;;;;;;5117196;28;20472;-74
2022/07/16 11:24:31;;;;;;;4.10;3.30;;;;;;;;;;5116830;28;20905;-75
2022/07/16 11:26:59;;;;;;;5.43;3.20;;;;;;;;;;5116800;28;20552;-75
2022/07/16 11:29:29;;;;;;;3.60;3.03;;;;;;;;;;5117108;28;20453;-75
2022/07/16 11:31:58;;;;;;;3.47;3.17;;;;;;;;;;5117027;28;20469;-75
2022/07/16 11:34:26;;;;;;;5.00;3.00;;;;;;;;;;5116662;28;20582;-75
2022/07/16 11:36:55;;;;;;;4.67;3.10;;;;;;;;;;5117062;27;20449;-75
2022/07/16 11:39:23;;;;;;;4.43;2.90;;;;;;;;;;5116618;28;20461;-75
2022/07/16 11:41:51;;;;;;;3.77;2.93;;;;;;;;;;5116520;27;20481;-75
2022/07/16 11:44:19;;;;;;;2.93;2.73;;;;;;;;;;5116454;28;20445;-75
2022/07/16 11:46:48;;;;;;;4.30;2.87;;;;;;;;;;5116786;28;20449;-75
2022/07/16 11:49:23;;;;;;;4.50;2.83;;;;;;;;;;5116404;28;20452;-75
2022/07/16 11:51:50;;;;;;;4.37;3.30;;;;;;;;;;5115798;27;20842;-75
2022/07/16 11:54:17;;;;;;;8.20;3.17;;;;;;;;;;5115708;28;20882;-75
2022/07/16 11:56:45;;;;;;;3.67;3.37;;;;;;;;;;5115862;28;20449;-75
2022/07/16 11:59:20;;;;;;;3.50;3.03;;;;;;;;;;5116156;28;20946;-76
2022/07/16 12:01:49;;;;;;;3.33;2.97;;;;;;;;;;5116372;28;20816;-75
2022/07/16 12:04:16;;;;;;;4.03;2.60;;;;;;;;;;5115854;28;20442;-75
2022/07/16 12:06:48;;;;;;;2.90;2.57;;;;;;;;;;5116174;28;20445;-75
2022/07/16 12:09:29;;;;;;;3.47;3.00;;;;;;;;;;5116068;28;20461;-75
2022/07/16 12:12:00;;;;;;;6.23;2.70;;;;;;;;;;5116201;28;20830;-75
2022/07/16 12:14:42;;;;;;;3.23;2.60;;;;;;;;;;5115624;28;21013;-75
2022/07/16 12:17:19;;;;;;;3.63;3.13;;;;;;;;;;5115905;28;20453;-75
2022/07/16 12:20:02;;;;;;;4.67;2.63;;;;;;;;;;5115999;28;20449;-75
2022/07/16 12:22:43;;;;;;;2.97;2.47;;;;;;;;;;5115720;28;20476;-75
2022/07/16 12:25:16;;;;;;;5.50;3.40;;;;;;;;;;5115662;27;20449;-75
2022/07/16 12:27:47;;;;;;;5.87;2.97;;;;;;;;;;5115736;28;20469;-75
2022/07/16 12:30:14;;;;;;;2.90;2.70;;;;;;;;;;5115887;28;20453;-75
2022/07/16 12:32:49;;;;;;;3.90;2.90;;;;;;;;;;5115470;28;20474;-75
2022/07/16 12:35:35;;;;;;;4.30;2.83;;;;;;;;;;5115383;28;20950;-75
2022/07/16 12:38:03;;;;;;;7.73;2.93;;;;;;;;;;5115611;28;20965;-75
2022/07/16 12:40:30;;;;;;;8.37;3.10;;;;;;;;;;5115484;28;20456;-76
2022/07/16 12:42:58;;;;;;;2.80;2.60;;;;;;;;;;5115206;28;20496;-75
2022/07/16 12:45:26;;;;;;;3.47;2.70;;;;;;;;;;5115034;28;20485;-75
2022/07/16 12:47:55;;;;;;;3.13;2.60;;;;;;;;;;5115627;28;20445;-76
2022/07/16 12:50:22;;;;;;;4.40;3.00;;;;;;;;;;5115747;28;20870;-75
2022/07/16 12:52:49;;;;;;;4.20;2.60;;;;;;;;;;5115220;28;20473;-75
2022/07/16 13:00:42;;;;;;;4.03;3.13;;;;;;;;;;5081154;28;20513;-75
2022/07/16 13:03:10;;;;;;;4.90;3.20;;;;;;;;;;5115644;28;20470;-75
2022/07/16 13:05:37;;;;;;;6.93;2.80;;;;;;;;;;5115313;28;20441;-75
2022/07/16 13:08:05;;;;;;;3.50;3.20;;;;;;;;;;5114649;27;20445;-75
2022/07/16 13:10:32;;;;;;;4.93;3.33;;;;;;;;;;5115150;28;20957;-75
2022/07/16 13:12:59;;;;;;;4.00;3.10;;;;;;;;;;5114801;28;21058;-75
2022/07/16 13:15:26;;;;;;;3.83;2.50;;;;;;;;;;5115129;28;20458;-75
2022/07/16 13:17:53;;;;;;;5.20;2.97;;;;;;;;;;5115348;27;20442;-76
2022/07/16 13:20:22;;;;;;;5.10;2.57;;;;;;;;;;5115185;28;20461;-75
2022/07/16 13:22:49;;;;;;;4.20;3.13;;;;;;;;;;5115197;28;20467;-75
2022/07/16 13:25:16;;;;;;;9.90;3.10;;;;;;;;;;5115471;28;20810;-75
2022/07/16 13:27:44;;;;;;;7.70;2.47;;;;;;;;;;5114748;28;20518;-77
2022/07/16 13:30:11;;;;;;;4.27;3.20;;;;;;;;;;5114491;28;20453;-75
2022/07/16 13:32:38;;;;;;;3.90;2.70;;;;;;;;;;5115397;28;20473;-75
2022/07/16 13:35:06;;;;;;;6.70;2.87;;;;;;;;;;5115246;28;20486;-76
2022/07/16 13:37:34;;;;;;;5.37;4.87;;;;;;;;;;5115482;28;20450;-75
2022/07/16 13:40:02;;;;;;;3.87;3.03;;;;;;;;;;5114593;28;20438;-75
2022/07/16 13:42:30;;;;;;;3.17;2.47;;;;;;;;;;5114285;28;20462;-75
2022/07/16 13:44:58;;;;;;;4.97;2.57;;;;;;;;;;5114653;28;20477;-75
2022/07/16 13:47:25;;;;;;;2.80;2.40;;;;;;;;;;5114596;28;20812;-75
2022/07/16 13:49:52;;;;;;;3.47;2.60;;;;;;;;;;5114406;28;20834;-75
2022/07/16 13:52:19;;;;;;;4.20;2.53;;;;;;;;;;5113729;28;20481;-75
2022/07/16 13:54:48;;;;;;;6.80;2.70;;;;;;;;;;5114244;28;20477;-76
2022/07/16 14:00:00;;;;;;;4.90;2.57;;;;;;;;;;5114629;28;20425;-75
2022/07/16 14:02:27;;;;;;;5.57;2.87;;;;;;;;;;5114249;28;20974;-75
2022/07/16 14:04:55;;;;;;;16.53;12.40;;;;;;;;;;5114207;28;20851;-75
2022/07/16 14:07:22;;;;;;;3.40;2.83;;;;;;;;;;5114164;28;20828;-75
2022/07/16 14:09:50;;;;;;;2.27;2.00;;;;;;;;;;5114435;28;20826;-75
2022/07/16 14:12:18;;;;;;;2.90;2.33;;;;;;;;;;5114618;28;20477;-75
2022/07/16 14:14:46;;;;;;;5.60;2.40;;;;;;;;;;5113668;28;20485;-75
2022/07/16 14:17:14;;;;;;;7.13;2.50;;;;;;;;;;5114489;28;20492;-75
2022/07/16 14:19:41;;;;;;;2.60;2.40;;;;;;;;;;5113746;28;20453;-74
2022/07/16 14:22:09;;;;;;;3.60;2.43;;;;;;;;;;5113999;28;20477;-75
2022/07/16 14:24:36;;;;;;;5.00;2.53;;;;;;;;;;5114298;28;20457;-74
2022/07/16 14:27:05;;;;;;;6.97;2.20;;;;;;;;;;5113899;28;20464;-75
2022/07/16 14:29:33;;;;;;;2.70;2.10;;;;;;;;;;5114346;28;20445;-75
2022/07/16 14:32:01;;;;;;;2.80;1.87;;;;;;;;;;5114065;28;20458;-74
2022/07/16 14:34:28;;;;;;;2.73;2.20;;;;;;;;;;5114692;28;20493;-75
2022/07/16 14:36:55;;;;;;;3.30;3.00;;;;;;;;;;5113893;28;20453;-75
2022/07/16 14:39:22;;;;;;;4.40;3.03;;;;;;;;;;5113259;28;20556;-75
2022/07/16 14:41:50;;;;;;;2.37;2.00;;;;;;;;;;5113328;28;20477;-75
2022/07/16 14:44:18;;;;;;;4.27;2.10;;;;;;;;;;5113267;28;20450;-75
2022/07/16 14:46:45;;;;;;;2.90;2.43;;;;;;;;;;5113476;28;20445;-75
2022/07/16 14:49:12;;;;;;;4.30;2.47;;;;;;;;;;5113414;28;20457;-75
2022/07/16 14:51:39;;;;;;;4.23;2.47;;;;;;;;;;5113211;28;20470;-75
2022/07/16 14:54:07;;;;;;;3.23;2.20;;;;;;;;;;5113123;28;20485;-75
2022/07/16 14:56:34;;;;;;;3.87;2.43;;;;;;;;;;5113101;28;20456;-75
2022/07/16 14:59:01;;;;;;;3.60;2.73;;;;;;;;;;5113163;28;20481;-74
2022/07/16 15:01:29;;;;;;;7.30;2.40;;;;;;;;;;5113303;28;20477;-74
2022/07/16 15:03:56;;;;;;;10.90;2.43;;;;;;;;;;5113231;28;20449;-75